Kolkata, India
Current Conditions -  °F | °C
As of 2:20 PM on Thursday 23 Oct 2014 (Local Time) from VECC Reporting Station
Haze Haze  
Wind Chill: 88°   Ceiling: Unl
Heat Index: 91°   Visibility: 2.1mi
Dew Point: 68°   Wind: 7mph
Humidity: 52%   Direction: 340°NNW
Pressure: 29.83"   Gusts: NA
Location:  22.54°N, 88.33°E
Report Text: VECC 230920Z 34006KT 3500 HZ SCT020 31/20 Q1010 NOSIG
Loading
Personal Weather Stations






























Interactive Weather Map
Tropical Storm Tracking
New forecast layout! Learn more

10-Day Weather Forecast

Advertisements
Track Severe Weather on mobile